sensor_id;sensor_type;location;lat;lon;timestamp;P1;P2;P0
47810;PMS5003;33575;52.600;7.318;2024-01-27T00:00:23;156;149;
47810;PMS5003;33575;52.600;7.318;2024-01-27T00:02:54;59;53;
47810;PMS5003;33575;52.600;7.318;2024-01-27T00:05:25;98;89;
47810;PMS5003;33575;52.600;7.318;2024-01-27T00:07:55;71;63;
47810;PMS5003;33575;52.600;7.318;2024-01-27T00:10:25;97;85;
47810;PMS5003;33575;52.600;7.318;2024-01-27T00:12:56;174;172;
47810;PMS5003;33575;52.600;7.318;2024-01-27T00:15:26;145;142;
47810;PMS5003;33575;52.600;7.318;2024-01-27T00:17:57;155;152;
47810;PMS5003;33575;52.600;7.318;2024-01-27T00:20:27;197;193;
47810;PMS5003;33575;52.600;7.318;2024-01-27T00:22:58;149;148;
47810;PMS5003;33575;52.600;7.318;2024-01-27T00:25:27;96;90;
47810;PMS5003;33575;52.600;7.318;2024-01-27T00:27:58;64;59;
47810;PMS5003;33575;52.600;7.318;2024-01-27T00:30:28;65;54;
47810;PMS5003;33575;52.600;7.318;2024-01-27T00:32:59;73;65;
47810;PMS5003;33575;52.600;7.318;2024-01-27T00:35:30;20;10;
47810;PMS5003;33575;52.600;7.318;2024-01-27T00:38:00;5;4;
47810;PMS5003;33575;52.600;7.318;2024-01-27T00:40:31;5;4;
47810;PMS5003;33575;52.600;7.318;2024-01-27T00:43:02;5;4;
47810;PMS5003;33575;52.600;7.318;2024-01-27T00:45:33;13;8;
47810;PMS5003;33575;52.600;7.318;2024-01-27T00:48:04;5;5;
47810;PMS5003;33575;52.600;7.318;2024-01-27T00:50:34;7;4;
47810;PMS5003;33575;52.600;7.318;2024-01-27T00:53:05;6;5;
47810;PMS5003;33575;52.600;7.318;2024-01-27T00:55:36;7;6;
47810;PMS5003;33575;52.600;7.318;2024-01-27T00:58:07;5;4;
47810;PMS5003;33575;52.600;7.318;2024-01-27T01:00:37;13;8;
47810;PMS5003;33575;52.600;7.318;2024-01-27T01:03:08;6;5;
47810;PMS5003;33575;52.600;7.318;2024-01-27T01:05:39;10;5;
47810;PMS5003;33575;52.600;7.318;2024-01-27T01:08:10;8;5;
47810;PMS5003;33575;52.600;7.318;2024-01-27T01:10:41;8;7;
47810;PMS5003;33575;52.600;7.318;2024-01-27T01:13:11;8;6;
47810;PMS5003;33575;52.600;7.318;2024-01-27T01:15:42;11;6;
47810;PMS5003;33575;52.600;7.318;2024-01-27T01:18:13;8;7;
47810;PMS5003;33575;52.600;7.318;2024-01-27T01:20:43;7;5;
47810;PMS5003;33575;52.600;7.318;2024-01-27T01:23:14;9;6;
47810;PMS5003;33575;52.600;7.318;2024-01-27T01:25:45;7;7;
47810;PMS5003;33575;52.600;7.318;2024-01-27T01:28:16;6;5;
47810;PMS5003;33575;52.600;7.318;2024-01-27T01:30:47;12;9;
47810;PMS5003;33575;52.600;7.318;2024-01-27T01:33:18;8;6;
47810;PMS5003;33575;52.600;7.318;2024-01-27T01:35:48;6;6;
47810;PMS5003;33575;52.600;7.318;2024-01-27T01:38:19;13;9;
47810;PMS5003;33575;52.600;7.318;2024-01-27T01:40:49;9;7;
47810;PMS5003;33575;52.600;7.318;2024-01-27T01:43:20;6;6;
47810;PMS5003;33575;52.600;7.318;2024-01-27T01:45:51;5;5;
47810;PMS5003;33575;52.600;7.318;2024-01-27T01:48:22;7;5;
47810;PMS5003;33575;52.600;7.318;2024-01-27T01:50:53;7;6;
47810;PMS5003;33575;52.600;7.318;2024-01-27T01:53:23;9;8;
47810;PMS5003;33575;52.600;7.318;2024-01-27T01:55:54;8;5;
47810;PMS5003;33575;52.600;7.318;2024-01-27T01:58:25;7;6;
47810;PMS5003;33575;52.600;7.318;2024-01-27T02:00:56;12;7;
47810;PMS5003;33575;52.600;7.318;2024-01-27T02:03:27;9;7;
47810;PMS5003;33575;52.600;7.318;2024-01-27T02:05:58;8;8;
47810;PMS5003;33575;52.600;7.318;2024-01-27T02:08:28;8;6;
47810;PMS5003;33575;52.600;7.318;2024-01-27T02:10:59;7;6;
47810;PMS5003;33575;52.600;7.318;2024-01-27T02:13:30;8;6;
47810;PMS5003;33575;52.600;7.318;2024-01-27T02:16:01;6;5;
47810;PMS5003;33575;52.600;7.318;2024-01-27T02:18:32;8;7;
47810;PMS5003;33575;52.600;7.318;2024-01-27T02:21:02;6;5;
47810;PMS5003;33575;52.600;7.318;2024-01-27T02:23:33;8;6;
47810;PMS5003;33575;52.600;7.318;2024-01-27T02:26:04;8;6;
47810;PMS5003;33575;52.600;7.318;2024-01-27T02:28:35;10;9;
47810;PMS5003;33575;52.600;7.318;2024-01-27T02:31:06;8;7;
47810;PMS5003;33575;52.600;7.318;2024-01-27T02:33:36;8;6;
47810;PMS5003;33575;52.600;7.318;2024-01-27T02:36:07;10;6;
47810;PMS5003;33575;52.600;7.318;2024-01-27T02:38:38;9;8;
47810;PMS5003;33575;52.600;7.318;2024-01-27T02:41:09;15;8;
47810;PMS5003;33575;52.600;7.318;2024-01-27T02:43:39;9;7;
47810;PMS5003;33575;52.600;7.318;2024-01-27T02:46:10;7;7;
47810;PMS5003;33575;52.600;7.318;2024-01-27T02:48:39;9;8;
47810;PMS5003;33575;52.600;7.318;2024-01-27T02:51:10;7;5;
47810;PMS5003;33575;52.600;7.318;2024-01-27T02:53:40;7;6;
47810;PMS5003;33575;52.600;7.318;2024-01-27T02:56:11;9;7;
47810;PMS5003;33575;52.600;7.318;2024-01-27T02:58:41;10;8;
47810;PMS5003;33575;52.600;7.318;2024-01-27T03:01:11;5;5;
47810;PMS5003;33575;52.600;7.318;2024-01-27T03:03:42;16;10;
47810;PMS5003;33575;52.600;7.318;2024-01-27T03:06:13;9;6;
47810;PMS5003;33575;52.600;7.318;2024-01-27T03:08:44;8;8;
47810;PMS5003;33575;52.600;7.318;2024-01-27T03:11:14;7;7;
47810;PMS5003;33575;52.600;7.318;2024-01-27T03:13:45;7;7;
47810;PMS5003;33575;52.600;7.318;2024-01-27T03:16:16;7;6;
47810;PMS5003;33575;52.600;7.318;2024-01-27T03:18:47;6;6;
47810;PMS5003;33575;52.600;7.318;2024-01-27T03:21:18;5;5;
47810;PMS5003;33575;52.600;7.318;2024-01-27T03:23:49;8;6;
47810;PMS5003;33575;52.600;7.318;2024-01-27T03:26:19;10;7;
47810;PMS5003;33575;52.600;7.318;2024-01-27T03:28:50;9;7;
47810;PMS5003;33575;52.600;7.318;2024-01-27T03:31:21;9;8;
47810;PMS5003;33575;52.600;7.318;2024-01-27T03:33:52;9;8;
47810;PMS5003;33575;52.600;7.318;2024-01-27T03:36:22;8;6;
47810;PMS5003;33575;52.600;7.318;2024-01-27T03:38:56;7;5;
47810;PMS5003;33575;52.600;7.318;2024-01-27T03:41:24;8;6;
47810;PMS5003;33575;52.600;7.318;2024-01-27T03:43:55;8;8;
47810;PMS5003;33575;52.600;7.318;2024-01-27T03:46:26;8;6;
47810;PMS5003;33575;52.600;7.318;2024-01-27T03:48:56;17;7;
47810;PMS5003;33575;52.600;7.318;2024-01-27T03:51:27;6;6;
47810;PMS5003;33575;52.600;7.318;2024-01-27T03:53:58;11;7;
47810;PMS5003;33575;52.600;7.318;2024-01-27T03:56:29;9;6;
47810;PMS5003;33575;52.600;7.318;2024-01-27T03:59:00;10;9;
47810;PMS5003;33575;52.600;7.318;2024-01-27T04:01:30;17;6;
47810;PMS5003;33575;52.600;7.318;2024-01-27T04:04:01;4;4;
47810;PMS5003;33575;52.600;7.318;2024-01-27T04:06:35;6;6;
47810;PMS5003;33575;52.600;7.318;2024-01-27T04:09:02;9;8;
47810;PMS5003;33575;52.600;7.318;2024-01-27T04:11:33;7;7;
47810;PMS5003;33575;52.600;7.318;2024-01-27T04:14:04;7;6;
47810;PMS5003;33575;52.600;7.318;2024-01-27T04:16:35;8;7;
47810;PMS5003;33575;52.600;7.318;2024-01-27T04:19:06;9;8;
47810;PMS5003;33575;52.600;7.318;2024-01-27T04:21:36;7;5;
47810;PMS5003;33575;52.600;7.318;2024-01-27T04:24:07;8;8;
47810;PMS5003;33575;52.600;7.318;2024-01-27T04:26:36;9;6;
47810;PMS5003;33575;52.600;7.318;2024-01-27T04:29:07;10;9;
47810;PMS5003;33575;52.600;7.318;2024-01-27T04:31:39;11;9;
47810;PMS5003;33575;52.600;7.318;2024-01-27T04:34:09;11;8;
47810;PMS5003;33575;52.600;7.318;2024-01-27T04:36:40;7;7;
47810;PMS5003;33575;52.600;7.318;2024-01-27T04:39:11;12;8;
47810;PMS5003;33575;52.600;7.318;2024-01-27T04:41:41;6;6;
47810;PMS5003;33575;52.600;7.318;2024-01-27T04:44:11;13;9;
47810;PMS5003;33575;52.600;7.318;2024-01-27T04:46:42;11;8;
47810;PMS5003;33575;52.600;7.318;2024-01-27T04:49:13;10;9;
47810;PMS5003;33575;52.600;7.318;2024-01-27T04:51:42;11;9;
47810;PMS5003;33575;52.600;7.318;2024-01-27T04:54:13;10;9;
47810;PMS5003;33575;52.600;7.318;2024-01-27T04:56:43;11;9;
47810;PMS5003;33575;52.600;7.318;2024-01-27T04:59:13;16;12;
47810;PMS5003;33575;52.600;7.318;2024-01-27T05:01:44;13;11;
47810;PMS5003;33575;52.600;7.318;2024-01-27T05:04:14;16;9;
47810;PMS5003;33575;52.600;7.318;2024-01-27T05:06:45;14;10;
47810;PMS5003;33575;52.600;7.318;2024-01-27T05:09:15;21;18;
47810;PMS5003;33575;52.600;7.318;2024-01-27T05:11:46;14;10;
47810;PMS5003;33575;52.600;7.318;2024-01-27T05:14:17;10;10;
47810;PMS5003;33575;52.600;7.318;2024-01-27T05:16:47;13;12;
47810;PMS5003;33575;52.600;7.318;2024-01-27T05:19:18;13;10;
47810;PMS5003;33575;52.600;7.318;2024-01-27T05:21:48;13;9;
47810;PMS5003;33575;52.600;7.318;2024-01-27T05:24:18;13;10;
47810;PMS5003;33575;52.600;7.318;2024-01-27T05:26:49;16;13;
47810;PMS5003;33575;52.600;7.318;2024-01-27T05:29:19;15;14;
47810;PMS5003;33575;52.600;7.318;2024-01-27T05:31:50;13;10;
47810;PMS5003;33575;52.600;7.318;2024-01-27T05:34:21;11;11;
47810;PMS5003;33575;52.600;7.318;2024-01-27T05:36:51;14;12;
47810;PMS5003;33575;52.600;7.318;2024-01-27T05:39:21;14;11;
47810;PMS5003;33575;52.600;7.318;2024-01-27T05:41:52;13;12;
47810;PMS5003;33575;52.600;7.318;2024-01-27T05:44:23;16;14;
47810;PMS5003;33575;52.600;7.318;2024-01-27T05:46:54;13;13;
47810;PMS5003;33575;52.600;7.318;2024-01-27T05:49:24;20;19;
47810;PMS5003;33575;52.600;7.318;2024-01-27T05:51:54;14;12;
47810;PMS5003;33575;52.600;7.318;2024-01-27T05:54:25;16;15;
47810;PMS5003;33575;52.600;7.318;2024-01-27T05:56:55;16;13;
47810;PMS5003;33575;52.600;7.318;2024-01-27T05:59:26;15;14;
47810;PMS5003;33575;52.600;7.318;2024-01-27T06:01:56;28;26;
47810;PMS5003;33575;52.600;7.318;2024-01-27T06:04:26;16;14;
47810;PMS5003;33575;52.600;7.318;2024-01-27T06:06:57;32;26;
47810;PMS5003;33575;52.600;7.318;2024-01-27T06:09:28;17;15;
47810;PMS5003;33575;52.600;7.318;2024-01-27T06:11:59;20;15;
47810;PMS5003;33575;52.600;7.318;2024-01-27T06:14:29;19;18;
47810;PMS5003;33575;52.600;7.318;2024-01-27T06:17:00;21;16;
47810;PMS5003;33575;52.600;7.318;2024-01-27T06:19:31;34;25;
47810;PMS5003;33575;52.600;7.318;2024-01-27T06:22:06;27;24;
47810;PMS5003;33575;52.600;7.318;2024-01-27T06:24:32;15;15;
47810;PMS5003;33575;52.600;7.318;2024-01-27T06:27:03;17;16;
47810;PMS5003;33575;52.600;7.318;2024-01-27T06:29:33;16;14;
47810;PMS5003;33575;52.600;7.318;2024-01-27T06:32:04;35;26;
47810;PMS5003;33575;52.600;7.318;2024-01-27T06:34:33;22;21;
47810;PMS5003;33575;52.600;7.318;2024-01-27T06:37:04;24;23;
47810;PMS5003;33575;52.600;7.318;2024-01-27T06:39:34;33;29;
47810;PMS5003;33575;52.600;7.318;2024-01-27T06:42:05;19;18;
47810;PMS5003;33575;52.600;7.318;2024-01-27T06:44:35;209;92;
47810;PMS5003;33575;52.600;7.318;2024-01-27T06:47:06;21;16;
47810;PMS5003;33575;52.600;7.318;2024-01-27T06:49:37;30;19;
47810;PMS5003;33575;52.600;7.318;2024-01-27T06:52:06;27;20;
47810;PMS5003;33575;52.600;7.318;2024-01-27T06:54:37;30;30;
47810;PMS5003;33575;52.600;7.318;2024-01-27T06:57:16;29;25;
47810;PMS5003;33575;52.600;7.318;2024-01-27T06:59:37;21;20;
47810;PMS5003;33575;52.600;7.318;2024-01-27T07:02:07;25;23;
47810;PMS5003;33575;52.600;7.318;2024-01-27T07:04:38;23;21;
47810;PMS5003;33575;52.600;7.318;2024-01-27T07:07:08;23;18;
47810;PMS5003;33575;52.600;7.318;2024-01-27T07:09:38;31;28;
47810;PMS5003;33575;52.600;7.318;2024-01-27T07:12:09;18;17;
47810;PMS5003;33575;52.600;7.318;2024-01-27T07:14:40;23;20;
47810;PMS5003;33575;52.600;7.318;2024-01-27T07:17:10;32;25;
47810;PMS5003;33575;52.600;7.318;2024-01-27T07:19:41;21;19;
47810;PMS5003;33575;52.600;7.318;2024-01-27T07:22:11;29;20;
47810;PMS5003;33575;52.600;7.318;2024-01-27T07:24:42;20;19;
47810;PMS5003;33575;52.600;7.318;2024-01-27T07:27:12;22;20;
47810;PMS5003;33575;52.600;7.318;2024-01-27T07:29:42;20;18;
47810;PMS5003;33575;52.600;7.318;2024-01-27T07:32:12;21;17;
47810;PMS5003;33575;52.600;7.318;2024-01-27T07:34:43;13;13;
47810;PMS5003;33575;52.600;7.318;2024-01-27T07:37:14;24;21;
47810;PMS5003;33575;52.600;7.318;2024-01-27T07:39:45;20;20;
47810;PMS5003;33575;52.600;7.318;2024-01-27T07:42:15;23;21;
47810;PMS5003;33575;52.600;7.318;2024-01-27T07:44:45;23;20;
47810;PMS5003;33575;52.600;7.318;2024-01-27T07:47:15;26;20;
47810;PMS5003;33575;52.600;7.318;2024-01-27T07:49:45;24;20;
47810;PMS5003;33575;52.600;7.318;2024-01-27T07:52:15;20;20;
47810;PMS5003;33575;52.600;7.318;2024-01-27T07:54:46;21;19;
47810;PMS5003;33575;52.600;7.318;2024-01-27T07:57:16;20;18;
47810;PMS5003;33575;52.600;7.318;2024-01-27T07:59:47;25;22;
47810;PMS5003;33575;52.600;7.318;2024-01-27T08:02:17;65;46;
47810;PMS5003;33575;52.600;7.318;2024-01-27T08:04:47;42;35;
47810;PMS5003;33575;52.600;7.318;2024-01-27T08:07:18;34;28;
47810;PMS5003;33575;52.600;7.318;2024-01-27T08:09:49;32;30;
47810;PMS5003;33575;52.600;7.318;2024-01-27T08:12:19;32;30;
47810;PMS5003;33575;52.600;7.318;2024-01-27T08:14:50;36;34;
47810;PMS5003;33575;52.600;7.318;2024-01-27T08:17:22;44;34;
47810;PMS5003;33575;52.600;7.318;2024-01-27T08:19:51;38;37;
47810;PMS5003;33575;52.600;7.318;2024-01-27T08:22:21;24;21;
47810;PMS5003;33575;52.600;7.318;2024-01-27T08:24:51;36;32;
47810;PMS5003;33575;52.600;7.318;2024-01-27T08:27:22;46;35;
47810;PMS5003;33575;52.600;7.318;2024-01-27T08:29:54;24;23;
47810;PMS5003;33575;52.600;7.318;2024-01-27T08:32:23;44;33;
47810;PMS5003;33575;52.600;7.318;2024-01-27T08:34:54;20;20;
47810;PMS5003;33575;52.600;7.318;2024-01-27T08:37:24;25;22;
47810;PMS5003;33575;52.600;7.318;2024-01-27T08:39:55;34;28;
47810;PMS5003;33575;52.600;7.318;2024-01-27T08:42:25;30;23;
47810;PMS5003;33575;52.600;7.318;2024-01-27T08:44:56;39;38;
47810;PMS5003;33575;52.600;7.318;2024-01-27T08:47:26;26;26;
47810;PMS5003;33575;52.600;7.318;2024-01-27T08:49:57;44;42;
47810;PMS5003;33575;52.600;7.318;2024-01-27T08:52:27;38;37;
47810;PMS5003;33575;52.600;7.318;2024-01-27T08:54:57;34;31;
47810;PMS5003;33575;52.600;7.318;2024-01-27T08:57:27;28;21;
47810;PMS5003;33575;52.600;7.318;2024-01-27T08:59:58;29;26;
47810;PMS5003;33575;52.600;7.318;2024-01-27T09:02:29;28;21;
47810;PMS5003;33575;52.600;7.318;2024-01-27T09:04:59;28;26;
47810;PMS5003;33575;52.600;7.318;2024-01-27T09:07:29;36;25;
47810;PMS5003;33575;52.600;7.318;2024-01-27T09:09:59;28;25;
47810;PMS5003;33575;52.600;7.318;2024-01-27T09:12:30;22;21;
47810;PMS5003;33575;52.600;7.318;2024-01-27T09:15:01;28;23;
47810;PMS5003;33575;52.600;7.318;2024-01-27T09:17:32;32;23;
47810;PMS5003;33575;52.600;7.318;2024-01-27T09:20:02;31;25;
47810;PMS5003;33575;52.600;7.318;2024-01-27T09:22:33;24;22;
47810;PMS5003;33575;52.600;7.318;2024-01-27T09:25:04;22;20;
47810;PMS5003;33575;52.600;7.318;2024-01-27T09:27:34;24;22;
47810;PMS5003;33575;52.600;7.318;2024-01-27T09:30:05;30;26;
47810;PMS5003;33575;52.600;7.318;2024-01-27T09:32:35;35;27;
47810;PMS5003;33575;52.600;7.318;2024-01-27T09:35:05;22;22;
47810;PMS5003;33575;52.600;7.318;2024-01-27T09:37:35;23;23;
47810;PMS5003;33575;52.600;7.318;2024-01-27T09:40:06;27;23;
47810;PMS5003;33575;52.600;7.318;2024-01-27T09:42:36;31;25;
47810;PMS5003;33575;52.600;7.318;2024-01-27T09:45:07;24;23;
47810;PMS5003;33575;52.600;7.318;2024-01-27T09:47:37;25;21;
47810;PMS5003;33575;52.600;7.318;2024-01-27T09:50:08;26;23;
47810;PMS5003;33575;52.600;7.318;2024-01-27T09:52:38;25;22;
47810;PMS5003;33575;52.600;7.318;2024-01-27T09:55:09;23;23;
47810;PMS5003;33575;52.600;7.318;2024-01-27T09:57:39;24;23;
47810;PMS5003;33575;52.600;7.318;2024-01-27T10:00:10;26;24;
47810;PMS5003;33575;52.600;7.318;2024-01-27T10:02:41;28;24;
47810;PMS5003;33575;52.600;7.318;2024-01-27T10:05:11;30;26;
47810;PMS5003;33575;52.600;7.318;2024-01-27T10:07:42;27;24;
47810;PMS5003;33575;52.600;7.318;2024-01-27T10:10:12;33;24;
47810;PMS5003;33575;52.600;7.318;2024-01-27T10:12:43;29;29;
47810;PMS5003;33575;52.600;7.318;2024-01-27T10:17:44;38;27;
47810;PMS5003;33575;52.600;7.318;2024-01-27T10:20:16;30;27;
47810;PMS5003;33575;52.600;7.318;2024-01-27T10:22:46;26;25;
47810;PMS5003;33575;52.600;7.318;2024-01-27T10:25:17;27;24;
47810;PMS5003;33575;52.600;7.318;2024-01-27T10:27:47;28;25;
47810;PMS5003;33575;52.600;7.318;2024-01-27T10:30:18;34;27;
47810;PMS5003;33575;52.600;7.318;2024-01-27T10:35:18;28;23;
47810;PMS5003;33575;52.600;7.318;2024-01-27T10:37:51;25;23;
47810;PMS5003;33575;52.600;7.318;2024-01-27T10:40:19;32;28;
47810;PMS5003;33575;52.600;7.318;2024-01-27T10:42:51;32;25;
47810;PMS5003;33575;52.600;7.318;2024-01-27T10:45:20;38;33;
47810;PMS5003;33575;52.600;7.318;2024-01-27T10:47:50;49;45;
47810;PMS5003;33575;52.600;7.318;2024-01-27T10:50:21;55;47;
47810;PMS5003;33575;52.600;7.318;2024-01-27T10:52:52;39;33;
47810;PMS5003;33575;52.600;7.318;2024-01-27T10:55:22;59;46;
47810;PMS5003;33575;52.600;7.318;2024-01-27T10:57:52;32;30;
47810;PMS5003;33575;52.600;7.318;2024-01-27T11:00:23;47;45;
47810;PMS5003;33575;52.600;7.318;2024-01-27T11:02:54;47;43;
47810;PMS5003;33575;52.600;7.318;2024-01-27T11:05:24;29;26;
47810;PMS5003;33575;52.600;7.318;2024-01-27T11:07:55;24;21;
47810;PMS5003;33575;52.600;7.318;2024-01-27T11:10:24;32;25;
47810;PMS5003;33575;52.600;7.318;2024-01-27T11:12:55;33;24;
47810;PMS5003;33575;52.600;7.318;2024-01-27T11:15:25;26;25;
47810;PMS5003;33575;52.600;7.318;2024-01-27T11:17:56;32;25;
47810;PMS5003;33575;52.600;7.318;2024-01-27T11:20:26;37;31;
47810;PMS5003;33575;52.600;7.318;2024-01-27T11:25:27;23;20;
47810;PMS5003;33575;52.600;7.318;2024-01-27T11:27:58;32;24;
47810;PMS5003;33575;52.600;7.318;2024-01-27T11:30:29;26;20;
47810;PMS5003;33575;52.600;7.318;2024-01-27T11:33:00;27;25;
47810;PMS5003;33575;52.600;7.318;2024-01-27T11:35:30;32;30;
47810;PMS5003;33575;52.600;7.318;2024-01-27T11:38:00;39;33;
47810;PMS5003;33575;52.600;7.318;2024-01-27T11:40:30;28;26;
47810;PMS5003;33575;52.600;7.318;2024-01-27T11:45:31;23;21;
47810;PMS5003;33575;52.600;7.318;2024-01-27T11:48:01;27;22;
47810;PMS5003;33575;52.600;7.318;2024-01-27T11:50:32;17;15;
47810;PMS5003;33575;52.600;7.318;2024-01-27T11:53:03;22;20;
47810;PMS5003;33575;52.600;7.318;2024-01-27T11:55:33;20;19;
47810;PMS5003;33575;52.600;7.318;2024-01-27T11:58:04;22;20;
47810;PMS5003;33575;52.600;7.318;2024-01-27T12:00:35;18;17;
47810;PMS5003;33575;52.600;7.318;2024-01-27T12:03:05;21;18;
47810;PMS5003;33575;52.600;7.318;2024-01-27T12:05:35;21;19;
47810;PMS5003;33575;52.600;7.318;2024-01-27T12:08:07;32;20;
47810;PMS5003;33575;52.600;7.318;2024-01-27T12:10:36;21;21;
47810;PMS5003;33575;52.600;7.318;2024-01-27T12:13:06;20;18;
47810;PMS5003;33575;52.600;7.318;2024-01-27T12:15:36;24;19;
47810;PMS5003;33575;52.600;7.318;2024-01-27T12:18:07;22;19;
47810;PMS5003;33575;52.600;7.318;2024-01-27T12:20:37;22;20;
47810;PMS5003;33575;52.600;7.318;2024-01-27T12:23:08;22;20;
47810;PMS5003;33575;52.600;7.318;2024-01-27T12:25:38;20;19;
47810;PMS5003;33575;52.600;7.318;2024-01-27T12:28:09;20;18;
47810;PMS5003;33575;52.600;7.318;2024-01-27T12:30:39;23;18;
47810;PMS5003;33575;52.600;7.318;2024-01-27T12:33:10;20;19;
47810;PMS5003;33575;52.600;7.318;2024-01-27T12:35:40;19;16;
47810;PMS5003;33575;52.600;7.318;2024-01-27T12:38:11;16;16;
47810;PMS5003;33575;52.600;7.318;2024-01-27T12:40:41;18;17;
47810;PMS5003;33575;52.600;7.318;2024-01-27T12:43:12;21;19;
47810;PMS5003;33575;52.600;7.318;2024-01-27T12:45:43;17;17;
47810;PMS5003;33575;52.600;7.318;2024-01-27T12:48:14;17;15;
47810;PMS5003;33575;52.600;7.318;2024-01-27T12:50:43;20;18;
47810;PMS5003;33575;52.600;7.318;2024-01-27T12:53:14;22;19;
47810;PMS5003;33575;52.600;7.318;2024-01-27T12:55:44;15;15;
47810;PMS5003;33575;52.600;7.318;2024-01-27T12:58:15;19;16;
47810;PMS5003;33575;52.600;7.318;2024-01-27T13:00:45;18;17;
47810;PMS5003;33575;52.600;7.318;2024-01-27T13:03:16;16;15;
47810;PMS5003;33575;52.600;7.318;2024-01-27T13:05:46;18;16;
47810;PMS5003;33575;52.600;7.318;2024-01-27T13:08:17;21;18;
47810;PMS5003;33575;52.600;7.318;2024-01-27T13:10:47;19;16;
47810;PMS5003;33575;52.600;7.318;2024-01-27T13:13:17;19;17;
47810;PMS5003;33575;52.600;7.318;2024-01-27T13:15:48;16;14;
47810;PMS5003;33575;52.600;7.318;2024-01-27T13:18:19;16;12;
47810;PMS5003;33575;52.600;7.318;2024-01-27T13:20:49;14;13;
47810;PMS5003;33575;52.600;7.318;2024-01-27T13:23:20;15;14;
47810;PMS5003;33575;52.600;7.318;2024-01-27T13:25:56;14;14;
47810;PMS5003;33575;52.600;7.318;2024-01-27T13:28:21;12;12;
47810;PMS5003;33575;52.600;7.318;2024-01-27T13:30:52;14;14;
47810;PMS5003;33575;52.600;7.318;2024-01-27T13:33:25;16;14;
47810;PMS5003;33575;52.600;7.318;2024-01-27T13:35:53;16;14;
47810;PMS5003;33575;52.600;7.318;2024-01-27T13:38:24;14;14;
47810;PMS5003;33575;52.600;7.318;2024-01-27T13:40:54;14;12;
47810;PMS5003;33575;52.600;7.318;2024-01-27T13:43:25;15;14;
47810;PMS5003;33575;52.600;7.318;2024-01-27T13:45:55;16;13;
47810;PMS5003;33575;52.600;7.318;2024-01-27T13:48:26;11;11;
47810;PMS5003;33575;52.600;7.318;2024-01-27T13:50:57;19;17;
47810;PMS5003;33575;52.600;7.318;2024-01-27T13:53:28;17;16;
47810;PMS5003;33575;52.600;7.318;2024-01-27T13:55:58;12;11;
47810;PMS5003;33575;52.600;7.318;2024-01-27T13:58:28;15;12;
47810;PMS5003;33575;52.600;7.318;2024-01-27T14:00:59;17;16;
47810;PMS5003;33575;52.600;7.318;2024-01-27T14:03:29;19;14;
47810;PMS5003;33575;52.600;7.318;2024-01-27T14:06:00;14;13;
47810;PMS5003;33575;52.600;7.318;2024-01-27T14:08:30;16;15;
47810;PMS5003;33575;52.600;7.318;2024-01-27T14:11:00;13;13;
47810;PMS5003;33575;52.600;7.318;2024-01-27T14:13:31;17;15;
47810;PMS5003;33575;52.600;7.318;2024-01-27T14:16:02;14;12;
47810;PMS5003;33575;52.600;7.318;2024-01-27T14:18:32;14;12;
47810;PMS5003;33575;52.600;7.318;2024-01-27T14:21:03;16;11;
47810;PMS5003;33575;52.600;7.318;2024-01-27T14:23:33;13;12;
47810;PMS5003;33575;52.600;7.318;2024-01-27T14:26:04;15;14;
47810;PMS5003;33575;52.600;7.318;2024-01-27T14:28:34;15;14;
47810;PMS5003;33575;52.600;7.318;2024-01-27T14:31:05;13;12;
47810;PMS5003;33575;52.600;7.318;2024-01-27T14:33:36;15;10;
47810;PMS5003;33575;52.600;7.318;2024-01-27T14:36:07;12;11;
47810;PMS5003;33575;52.600;7.318;2024-01-27T14:38:37;10;10;
47810;PMS5003;33575;52.600;7.318;2024-01-27T14:41:08;10;8;
47810;PMS5003;33575;52.600;7.318;2024-01-27T14:43:38;13;12;
47810;PMS5003;33575;52.600;7.318;2024-01-27T14:46:09;12;11;
47810;PMS5003;33575;52.600;7.318;2024-01-27T14:48:40;8;8;
47810;PMS5003;33575;52.600;7.318;2024-01-27T14:51:10;12;11;
47810;PMS5003;33575;52.600;7.318;2024-01-27T14:53:41;11;9;
47810;PMS5003;33575;52.600;7.318;2024-01-27T14:56:11;10;7;
47810;PMS5003;33575;52.600;7.318;2024-01-27T14:58:41;10;7;
47810;PMS5003;33575;52.600;7.318;2024-01-27T15:01:12;12;11;
47810;PMS5003;33575;52.600;7.318;2024-01-27T15:03:43;12;11;
47810;PMS5003;33575;52.600;7.318;2024-01-27T15:06:13;10;10;
47810;PMS5003;33575;52.600;7.318;2024-01-27T15:08:43;10;9;
47810;PMS5003;33575;52.600;7.318;2024-01-27T15:11:14;10;9;
47810;PMS5003;33575;52.600;7.318;2024-01-27T15:13:44;10;8;
47810;PMS5003;33575;52.600;7.318;2024-01-27T15:16:15;12;10;
47810;PMS5003;33575;52.600;7.318;2024-01-27T15:18:46;9;7;
47810;PMS5003;33575;52.600;7.318;2024-01-27T15:21:16;9;9;
47810;PMS5003;33575;52.600;7.318;2024-01-27T15:23:47;9;9;
47810;PMS5003;33575;52.600;7.318;2024-01-27T15:26:18;11;8;
47810;PMS5003;33575;52.600;7.318;2024-01-27T15:28:48;9;8;
47810;PMS5003;33575;52.600;7.318;2024-01-27T15:31:19;11;10;
47810;PMS5003;33575;52.600;7.318;2024-01-27T15:33:50;10;8;
47810;PMS5003;33575;52.600;7.318;2024-01-27T15:36:20;10;8;
47810;PMS5003;33575;52.600;7.318;2024-01-27T15:38:51;8;8;
47810;PMS5003;33575;52.600;7.318;2024-01-27T15:41:21;11;9;
47810;PMS5003;33575;52.600;7.318;2024-01-27T15:43:52;12;10;
47810;PMS5003;33575;52.600;7.318;2024-01-27T15:46:23;9;9;
47810;PMS5003;33575;52.600;7.318;2024-01-27T15:48:54;10;9;
47810;PMS5003;33575;52.600;7.318;2024-01-27T15:51:24;11;8;
47810;PMS5003;33575;52.600;7.318;2024-01-27T15:53:55;16;12;
47810;PMS5003;33575;52.600;7.318;2024-01-27T15:56:26;11;11;
47810;PMS5003;33575;52.600;7.318;2024-01-27T15:58:56;9;8;
47810;PMS5003;33575;52.600;7.318;2024-01-27T16:01:27;12;10;
47810;PMS5003;33575;52.600;7.318;2024-01-27T16:03:58;9;9;
47810;PMS5003;33575;52.600;7.318;2024-01-27T16:06:28;11;10;
47810;PMS5003;33575;52.600;7.318;2024-01-27T16:08:59;10;8;
47810;PMS5003;33575;52.600;7.318;2024-01-27T16:11:29;16;13;
47810;PMS5003;33575;52.600;7.318;2024-01-27T16:14:00;12;12;
47810;PMS5003;33575;52.600;7.318;2024-01-27T16:16:30;13;10;
47810;PMS5003;33575;52.600;7.318;2024-01-27T16:19:02;16;13;
47810;PMS5003;33575;52.600;7.318;2024-01-27T16:21:34;14;13;
47810;PMS5003;33575;52.600;7.318;2024-01-27T16:24:03;13;11;
47810;PMS5003;33575;52.600;7.318;2024-01-27T16:26:33;15;13;
47810;PMS5003;33575;52.600;7.318;2024-01-27T16:29:04;15;14;
47810;PMS5003;33575;52.600;7.318;2024-01-27T16:31:35;13;13;
47810;PMS5003;33575;52.600;7.318;2024-01-27T16:34:05;18;14;
47810;PMS5003;33575;52.600;7.318;2024-01-27T16:36:35;15;12;
47810;PMS5003;33575;52.600;7.318;2024-01-27T16:39:06;14;13;
47810;PMS5003;33575;52.600;7.318;2024-01-27T16:41:36;12;11;
47810;PMS5003;33575;52.600;7.318;2024-01-27T16:44:07;15;13;
47810;PMS5003;33575;52.600;7.318;2024-01-27T16:46:38;17;14;
47810;PMS5003;33575;52.600;7.318;2024-01-27T16:49:08;15;15;
47810;PMS5003;33575;52.600;7.318;2024-01-27T16:51:39;18;16;
47810;PMS5003;33575;52.600;7.318;2024-01-27T16:54:10;18;15;
47810;PMS5003;33575;52.600;7.318;2024-01-27T16:56:41;21;20;